createdAt,value
2022-12-28T00:00:35.262Z,74.47
2022-12-28T00:03:59.586Z,74.48
2022-12-28T00:07:01.256Z,74.65
2022-12-28T00:10:03.184Z,74.44
2022-12-28T00:13:04.725Z,74.45
2022-12-28T00:16:14.208Z,74.37
2022-12-28T00:19:16.687Z,74.22
2022-12-28T00:22:18.353Z,74.26
2022-12-28T00:25:19.899Z,74.69
2022-12-28T00:28:21.805Z,74.65
2022-12-28T00:31:23.663Z,74.97
2022-12-28T00:34:26.458Z,74.91
2022-12-28T00:37:28.540Z,74.69
2022-12-28T00:40:30.050Z,74.91
2022-12-28T00:43:32.089Z,74.86
2022-12-28T00:46:33.791Z,74.78
2022-12-28T00:49:35.271Z,74.79
2022-12-28T00:52:36.959Z,74.83
2022-12-28T00:55:39.345Z,74.86
2022-12-28T00:58:41.702Z,74.86
2022-12-28T01:01:43.546Z,74.94
2022-12-28T01:04:45.330Z,74.73
2022-12-28T01:07:46.904Z,74.86
2022-12-28T01:10:48.568Z,74.87
2022-12-28T01:13:51.555Z,74.86
2022-12-28T01:16:53.232Z,75.21
2022-12-28T01:19:55.772Z,74.81
2022-12-28T01:22:57.418Z,74.87
2022-12-28T01:26:02.374Z,74.94
2022-12-28T01:29:04.164Z,75.08
2022-12-28T01:32:06.595Z,75.34
2022-12-28T01:35:08.536Z,75.47
2022-12-28T01:38:10.122Z,75.64
2022-12-28T01:41:14.602Z,75.34
2022-12-28T01:44:16.420Z,75.41
2022-12-28T01:47:28.829Z,75.60
2022-12-28T01:50:30.620Z,75.93
2022-12-28T01:53:32.328Z,75.54
2022-12-28T01:56:33.926Z,75.95
2022-12-28T01:59:39.566Z,76.19
2022-12-28T02:03:02.565Z,75.90
2022-12-28T02:06:08.731Z,75.99
2022-12-28T02:09:14.559Z,76.02
2022-12-28T02:12:17.338Z,76.36
2022-12-28T02:15:23.062Z,76.38
2022-12-28T02:18:25.133Z,76.62
2022-12-28T02:21:44.193Z,76.63
2022-12-28T02:24:45.744Z,77.09
2022-12-28T02:28:18.330Z,76.95
2022-12-28T02:32:00.641Z,76.97
2022-12-28T02:35:34.062Z,76.74
2022-12-28T02:39:05.929Z,76.40
2022-12-28T02:42:07.994Z,76.40
2022-12-28T02:45:38.292Z,76.14
2022-12-28T02:48:44.856Z,75.96
2022-12-28T02:52:02.717Z,75.90
2022-12-28T02:55:07.088Z,76.05
2022-12-28T02:58:31.028Z,76.33
2022-12-28T03:01:53.446Z,75.90
2022-12-28T03:05:18.885Z,75.99
2022-12-28T03:08:49.974Z,75.99
2022-12-28T03:11:56.700Z,76.16
2022-12-28T03:15:12.026Z,76.48
2022-12-28T03:18:16.601Z,76.61
2022-12-28T03:21:18.607Z,75.98
2022-12-28T03:24:20.218Z,75.98
2022-12-28T03:27:22.309Z,76.11
2022-12-28T03:30:24.357Z,76.02
2022-12-28T03:33:25.957Z,76.26
2022-12-28T03:36:31.004Z,76.56
2022-12-28T03:39:52.778Z,76.28
2022-12-28T03:42:55.921Z,76.39
2022-12-28T03:46:21.727Z,75.97
2022-12-28T03:49:23.936Z,76.40
2022-12-28T03:52:26.076Z,76.56
2022-12-28T03:55:27.869Z,76.30
2022-12-28T03:58:29.463Z,76.68
2022-12-28T04:01:31.265Z,76.72
2022-12-28T04:04:32.877Z,76.78
2022-12-28T04:07:34.484Z,76.75
2022-12-28T04:10:36.042Z,76.76
2022-12-28T04:13:37.910Z,76.63
2022-12-28T04:16:39.377Z,76.84
2022-12-28T04:19:40.953Z,76.97
2022-12-28T04:22:42.560Z,77.06
2022-12-28T04:25:44.324Z,77.01
2022-12-28T04:28:46.325Z,77.09
2022-12-28T04:31:48.105Z,76.80
2022-12-28T04:34:50.990Z,76.58
2022-12-28T04:37:52.575Z,76.40
2022-12-28T04:40:54.216Z,76.78
2022-12-28T04:43:55.889Z,76.97
2022-12-28T04:46:57.590Z,77.08
2022-12-28T04:49:59.343Z,76.83
2022-12-28T04:53:00.866Z,77.02
2022-12-28T04:56:06.965Z,77.07
2022-12-28T04:59:08.653Z,76.75
2022-12-28T05:02:10.420Z,77.40
2022-12-28T05:05:12.022Z,77.36
2022-12-28T05:08:13.703Z,76.93
2022-12-28T05:11:18.400Z,76.47
2022-12-28T05:14:19.939Z,76.72
2022-12-28T05:17:21.617Z,77.04
2022-12-28T05:20:23.203Z,76.83
2022-12-28T05:23:24.776Z,76.75
2022-12-28T05:26:28.808Z,77.21
2022-12-28T05:29:30.462Z,77.03
2022-12-28T05:32:32.037Z,77.37
2022-12-28T05:35:35.320Z,77.42
2022-12-28T05:38:37.263Z,77.35
2022-12-28T05:41:38.956Z,77.12
2022-12-28T05:44:40.676Z,76.93
2022-12-28T05:47:42.365Z,77.47
2022-12-28T05:50:43.994Z,77.48
2022-12-28T05:53:45.904Z,77.03
2022-12-28T05:56:49.919Z,77.16
2022-12-28T05:59:51.509Z,77.64
2022-12-28T06:02:55.029Z,77.02
2022-12-28T06:05:56.767Z,77.30
2022-12-28T06:08:58.711Z,77.87
2022-12-28T06:12:00.352Z,77.57
2022-12-28T06:15:01.965Z,77.70
2022-12-28T06:18:03.837Z,77.88
2022-12-28T06:21:14.062Z,78.05
2022-12-28T06:24:15.661Z,77.88
2022-12-28T06:27:17.203Z,77.93
2022-12-28T06:30:18.938Z,77.97
2022-12-28T06:33:20.565Z,78.11
2022-12-28T06:36:24.823Z,78.10
2022-12-28T06:39:26.467Z,77.99
2022-12-28T06:42:28.048Z,77.86
2022-12-28T06:45:29.733Z,77.86
2022-12-28T06:48:32.865Z,78.07
2022-12-28T06:51:36.486Z,78.34
2022-12-28T06:54:38.302Z,78.33
2022-12-28T06:57:39.865Z,78.23
2022-12-28T07:00:41.418Z,78.03
2022-12-28T07:03:44.356Z,78.60
2022-12-28T07:06:46.048Z,78.26
2022-12-28T07:09:47.573Z,78.46
2022-12-28T07:12:49.341Z,77.99
2022-12-28T07:15:50.892Z,77.37
2022-12-28T07:18:52.853Z,77.66
2022-12-28T07:21:54.494Z,77.34
2022-12-28T07:24:56.024Z,76.50
2022-12-28T07:27:57.612Z,76.44
2022-12-28T07:30:59.348Z,76.77
2022-12-28T07:34:01.145Z,76.66
2022-12-28T07:37:02.780Z,76.40
2022-12-28T07:40:04.814Z,76.15
2022-12-28T07:43:06.486Z,76.54
2022-12-28T07:46:13.527Z,76.33
2022-12-28T07:49:15.121Z,76.21
2022-12-28T07:52:16.696Z,76.00
2022-12-28T07:55:18.345Z,76.19
2022-12-28T07:58:19.909Z,75.97
2022-12-28T08:01:23.808Z,75.77
2022-12-28T08:04:25.857Z,75.93
2022-12-28T08:07:27.490Z,75.72
2022-12-28T08:10:29.151Z,75.67
2022-12-28T08:13:34.471Z,75.57
2022-12-28T08:16:40.872Z,75.53
2022-12-28T08:19:42.591Z,75.38
2022-12-28T08:22:44.245Z,75.49
2022-12-28T08:25:46.007Z,75.24
2022-12-28T08:28:48.701Z,75.18
2022-12-28T08:31:50.508Z,75.13
2022-12-28T08:34:52.305Z,74.83
2022-12-28T08:37:56.999Z,74.96
2022-12-28T08:41:00.583Z,74.88
2022-12-28T08:44:02.476Z,74.62
2022-12-28T08:47:04.102Z,74.46
2022-12-28T08:50:06.058Z,74.41
2022-12-28T08:53:07.630Z,74.31
2022-12-28T08:56:12.180Z,73.94
2022-12-28T08:59:17.867Z,73.73
2022-12-28T09:02:19.546Z,73.38
2022-12-28T09:05:21.216Z,73.32
2022-12-28T09:08:22.634Z,73.09
2022-12-28T09:11:24.750Z,72.64
2022-12-28T09:14:26.403Z,70.46
2022-12-28T09:17:28.127Z,70.13
2022-12-28T09:20:29.777Z,69.90
2022-12-28T09:23:31.476Z,69.23
2022-12-28T09:26:36.872Z,68.58
2022-12-28T09:29:38.422Z,67.70
2022-12-28T09:32:40.064Z,67.01
2022-12-28T09:35:41.646Z,66.09
2022-12-28T09:38:43.724Z,64.78
2022-12-28T09:41:52.845Z,65.20
2022-12-28T09:45:03.700Z,64.67
2022-12-28T09:48:12.655Z,64.65
2022-12-28T09:51:14.797Z,64.98
2022-12-28T09:54:16.488Z,63.79
2022-12-28T09:57:19.130Z,65.05
2022-12-28T10:00:32.267Z,62.42
2022-12-28T10:03:41.614Z,64.42
2022-12-28T10:06:43.467Z,62.48
2022-12-28T10:09:45.761Z,59.95
2022-12-28T10:12:48.161Z,60.02
2022-12-28T10:15:50.764Z,58.08
2022-12-28T10:18:52.779Z,58.95
2022-12-28T10:22:03.125Z,59.52
2022-12-28T10:25:17.061Z,59.04
2022-12-28T10:28:21.407Z,59.05
2022-12-28T10:31:36.470Z,59.57
2022-12-28T10:34:53.371Z,58.64
2022-12-28T10:38:27.887Z,58.80
2022-12-28T10:41:36.150Z,59.78
2022-12-28T10:44:40.125Z,59.63
2022-12-28T10:47:44.805Z,61.03
2022-12-28T10:50:54.102Z,61.64
2022-12-28T10:53:57.734Z,61.58
2022-12-28T10:56:59.424Z,62.33
2022-12-28T11:00:33.349Z,63.15
2022-12-28T11:03:37.520Z,63.58
2022-12-28T11:06:59.344Z,64.12
2022-12-28T11:10:19.381Z,64.10
2022-12-28T11:13:22.157Z,64.48
2022-12-28T11:16:24.128Z,65.25
2022-12-28T11:19:26.101Z,65.22
2022-12-28T11:22:29.393Z,65.40
2022-12-28T11:25:33.373Z,65.79
2022-12-28T11:28:34.951Z,66.16
2022-12-28T11:31:43.723Z,66.43
2022-12-28T11:34:45.714Z,66.33
2022-12-28T11:37:58.182Z,66.51
2022-12-28T11:40:59.814Z,66.73
2022-12-28T11:44:01.990Z,66.04
2022-12-28T11:47:16.168Z,66.49
2022-12-28T11:50:33.483Z,66.38
2022-12-28T11:53:35.046Z,66.09
2022-12-28T11:56:36.636Z,65.61
2022-12-28T11:59:38.176Z,65.61
2022-12-28T12:02:40.178Z,65.85
2022-12-28T12:05:41.807Z,65.13
2022-12-28T12:08:43.525Z,64.95
2022-12-28T12:11:46.099Z,64.28
2022-12-28T12:14:53.070Z,64.42
2022-12-28T12:18:06.047Z,63.53
2022-12-28T12:21:15.587Z,63.27
2022-12-28T12:24:17.754Z,62.53
2022-12-28T12:27:37.208Z,61.71
2022-12-28T12:30:42.391Z,62.03
2022-12-28T12:33:46.827Z,61.88
2022-12-28T12:36:59.595Z,61.56
2022-12-28T12:40:40.036Z,60.10
2022-12-28T12:44:04.747Z,59.60
2022-12-28T12:47:29.856Z,59.00
2022-12-28T12:51:03.769Z,60.33
2022-12-28T12:54:33.201Z,59.08
2022-12-28T12:57:40.209Z,58.78
2022-12-28T13:00:49.087Z,58.99
2022-12-28T13:03:53.576Z,57.73
2022-12-28T13:07:03.694Z,56.37
2022-12-28T13:10:05.865Z,55.67
2022-12-28T13:13:07.552Z,56.98
2022-12-28T13:16:10.083Z,56.58
2022-12-28T13:19:18.260Z,56.58
2022-12-28T13:22:33.454Z,57.73
2022-12-28T13:25:35.253Z,58.23
2022-12-28T13:28:37.541Z,57.83
2022-12-28T13:31:40.268Z,56.90
2022-12-28T13:34:49.345Z,56.10
2022-12-28T13:38:12.831Z,57.94
2022-12-28T13:41:34.289Z,57.21
2022-12-28T13:44:40.021Z,57.11
2022-12-28T13:47:45.012Z,57.87
2022-12-28T13:50:46.785Z,58.58
2022-12-28T13:53:53.220Z,58.93
2022-12-28T13:57:14.377Z,58.81
2022-12-28T14:00:18.882Z,60.19
2022-12-28T14:03:20.662Z,59.58
2022-12-28T14:06:22.250Z,60.58
2022-12-28T14:09:23.743Z,61.65
2022-12-28T14:12:25.811Z,61.93
2022-12-28T14:15:27.940Z,61.89
2022-12-28T14:18:31.212Z,61.41
2022-12-28T14:21:35.276Z,60.90
2022-12-28T14:24:37.069Z,60.60
2022-12-28T14:28:00.994Z,59.28
2022-12-28T14:31:05.138Z,58.57
2022-12-28T14:34:07.384Z,58.50
2022-12-28T14:37:30.290Z,58.47
2022-12-28T14:40:35.212Z,58.38
2022-12-28T14:43:37.042Z,58.88
2022-12-28T14:46:40.018Z,59.08
2022-12-28T14:49:42.018Z,59.31
2022-12-28T14:52:46.013Z,60.25
2022-12-28T14:55:53.830Z,61.05
2022-12-28T14:58:58.568Z,61.68
2022-12-28T15:02:00.449Z,62.20
2022-12-28T15:05:02.949Z,62.41
2022-12-28T15:08:05.343Z,62.26
2022-12-28T15:11:06.992Z,62.21
2022-12-28T15:14:08.456Z,62.41
2022-12-28T15:17:10.681Z,62.51
2022-12-28T15:20:12.403Z,62.77
2022-12-28T15:23:14.165Z,62.66
2022-12-28T15:26:15.710Z,63.13
2022-12-28T15:29:32.159Z,63.40
2022-12-28T15:32:38.905Z,63.74
2022-12-28T15:35:40.399Z,63.87
2022-12-28T15:38:42.466Z,64.12
2022-12-28T15:41:44.153Z,64.36
2022-12-28T15:44:45.632Z,64.32
2022-12-28T15:47:47.251Z,64.11
2022-12-28T15:50:49.098Z,64.05
2022-12-28T15:53:50.553Z,64.27
2022-12-28T15:56:53.697Z,64.37
2022-12-28T15:59:55.709Z,64.11
2022-12-28T16:02:57.528Z,64.34
2022-12-28T16:05:59.407Z,64.72
2022-12-28T16:09:01.675Z,64.84
2022-12-28T16:12:03.988Z,65.05
2022-12-28T16:15:06.862Z,65.18
2022-12-28T16:18:08.510Z,65.61
2022-12-28T16:21:11.192Z,65.52
2022-12-28T16:24:12.914Z,65.78
2022-12-28T16:27:14.908Z,66.16
2022-12-28T16:30:16.586Z,66.31
2022-12-28T16:33:18.180Z,66.42
2022-12-28T16:36:19.818Z,66.55
2022-12-28T16:39:21.522Z,66.64
2022-12-28T16:42:23.079Z,66.96
2022-12-28T16:45:24.744Z,67.14
2022-12-28T16:48:26.333Z,67.23
2022-12-28T16:51:29.228Z,67.28
2022-12-28T16:54:30.916Z,66.84
2022-12-28T16:57:32.671Z,67.22
2022-12-28T17:00:34.500Z,67.17
2022-12-28T17:03:36.557Z,67.18
2022-12-28T17:06:40.174Z,67.18
2022-12-28T17:09:45.383Z,67.26
2022-12-28T17:12:51.578Z,67.54
2022-12-28T17:15:53.491Z,67.50
2022-12-28T17:18:55.063Z,67.37
2022-12-28T17:21:56.791Z,67.32
2022-12-28T17:24:58.403Z,67.62
2022-12-28T17:28:00.156Z,67.55
2022-12-28T17:31:16.661Z,67.78
2022-12-28T17:34:19.536Z,67.60
2022-12-28T17:37:21.195Z,67.38
2022-12-28T17:40:22.742Z,66.94
2022-12-28T17:43:24.364Z,67.42
2022-12-28T17:46:28.843Z,67.42
2022-12-28T17:49:31.606Z,67.66
2022-12-28T17:52:33.235Z,67.35
2022-12-28T17:55:35.623Z,67.68
2022-12-28T17:58:37.248Z,67.77
2022-12-28T18:01:39.164Z,68.03
2022-12-28T18:04:40.907Z,68.07
2022-12-28T18:07:42.617Z,67.88
2022-12-28T18:10:45.495Z,67.88
2022-12-28T18:13:47.246Z,67.95
2022-12-28T18:16:48.777Z,68.06
2022-12-28T18:19:50.642Z,68.26
2022-12-28T18:22:52.334Z,68.22
2022-12-28T18:26:08.399Z,68.33
2022-12-28T18:29:10.046Z,68.59
2022-12-28T18:32:11.625Z,68.77
2022-12-28T18:35:13.343Z,68.34
2022-12-28T18:38:14.904Z,68.36
2022-12-28T18:41:18.479Z,68.25
2022-12-28T18:44:20.235Z,68.20
2022-12-28T18:47:21.941Z,67.95
2022-12-28T18:50:23.585Z,68.12
2022-12-28T18:53:26.810Z,68.21
2022-12-28T18:56:28.450Z,68.20
2022-12-28T18:59:30.051Z,68.10
2022-12-28T19:02:32.061Z,68.53
2022-12-28T19:05:34.003Z,68.44
2022-12-28T19:08:37.053Z,68.63
2022-12-28T19:11:39.895Z,68.81
2022-12-28T19:14:41.469Z,68.23
2022-12-28T19:17:43.058Z,68.20
2022-12-28T19:20:44.891Z,68.23
2022-12-28T19:23:50.699Z,68.06
2022-12-28T19:26:52.320Z,68.06
2022-12-28T19:29:54.254Z,68.09
2022-12-28T19:32:55.933Z,67.55
2022-12-28T19:35:57.434Z,67.56
2022-12-28T19:38:59.073Z,67.84
2022-12-28T19:42:00.603Z,68.12
2022-12-28T19:45:07.933Z,67.98
2022-12-28T19:48:11.484Z,68.46
2022-12-28T19:51:13.889Z,68.16
2022-12-28T19:54:15.628Z,68.17
2022-12-28T19:57:17.167Z,68.38
2022-12-28T20:00:18.964Z,68.61
2022-12-28T20:03:21.283Z,68.24
2022-12-28T20:06:24.957Z,68.17
2022-12-28T20:09:26.674Z,68.24
2022-12-28T20:12:28.348Z,68.01
2022-12-28T20:15:29.991Z,67.60
2022-12-28T20:18:31.711Z,68.10
2022-12-28T20:21:33.292Z,68.06
2022-12-28T20:24:34.972Z,68.05
2022-12-28T20:27:36.585Z,68.10
2022-12-28T20:30:38.291Z,67.69
2022-12-28T20:33:40.604Z,67.78
2022-12-28T20:36:42.445Z,67.87
2022-12-28T20:39:43.948Z,68.30
2022-12-28T20:42:45.591Z,68.15
2022-12-28T20:45:53.922Z,68.19
2022-12-28T20:48:56.230Z,68.08
2022-12-28T20:51:57.715Z,68.12
2022-12-28T20:54:59.294Z,67.98
2022-12-28T20:58:00.918Z,68.27
2022-12-28T21:01:08.829Z,67.47
2022-12-28T21:04:10.691Z,67.45
2022-12-28T21:07:12.211Z,67.83
2022-12-28T21:10:13.959Z,67.50
2022-12-28T21:13:15.634Z,67.13
2022-12-28T21:16:18.159Z,67.16
2022-12-28T21:19:19.868Z,67.59
2022-12-28T21:22:21.384Z,66.92
2022-12-28T21:25:23.142Z,67.14
2022-12-28T21:28:24.775Z,67.01
2022-12-28T21:31:26.509Z,66.41
2022-12-28T21:34:29.221Z,66.44
2022-12-28T21:37:30.934Z,66.01
2022-12-28T21:40:32.460Z,65.87
2022-12-28T21:43:34.121Z,65.11
2022-12-28T21:46:35.896Z,64.79
2022-12-28T21:49:37.406Z,64.33
2022-12-28T21:52:39.048Z,64.02
2022-12-28T21:55:40.692Z,63.96
2022-12-28T21:58:45.338Z,64.11
2022-12-28T22:01:47.416Z,64.36
2022-12-28T22:04:49.290Z,64.00
2022-12-28T22:07:50.816Z,64.35
2022-12-28T22:10:56.225Z,64.46
2022-12-28T22:13:58.320Z,64.64
2022-12-28T22:17:00.247Z,64.98
2022-12-28T22:20:02.138Z,65.50
2022-12-28T22:23:04.035Z,65.95
2022-12-28T22:26:05.782Z,66.26
2022-12-28T22:29:07.431Z,66.29
2022-12-28T22:32:09.118Z,66.70
2022-12-28T22:35:11.154Z,66.59
2022-12-28T22:38:12.796Z,66.70
2022-12-28T22:41:14.338Z,66.80
2022-12-28T22:44:15.841Z,66.74
2022-12-28T22:47:17.516Z,66.92
2022-12-28T22:50:19.271Z,66.70
2022-12-28T22:53:20.891Z,66.70
2022-12-28T22:56:22.530Z,66.73
2022-12-28T22:59:24.329Z,66.64
2022-12-28T23:02:25.885Z,66.66
2022-12-28T23:05:27.951Z,66.77
2022-12-28T23:08:29.603Z,66.66
2022-12-28T23:11:31.421Z,66.85
2022-12-28T23:14:33.018Z,67.19
2022-12-28T23:17:34.774Z,67.21
2022-12-28T23:20:38.991Z,67.41
2022-12-28T23:23:40.776Z,67.24
2022-12-28T23:26:42.355Z,67.58
2022-12-28T23:29:45.152Z,67.38
2022-12-28T23:32:47.868Z,67.62
2022-12-28T23:35:49.482Z,67.68
2022-12-28T23:38:51.095Z,67.59
2022-12-28T23:41:52.910Z,67.25
2022-12-28T23:44:54.379Z,67.22
2022-12-28T23:47:55.884Z,67.68
2022-12-28T23:50:57.476Z,67.58
2022-12-28T23:53:59.235Z,67.67
2022-12-28T23:57:00.890Z,67.83
